createdAt,value
2019-02-22T00:01:07.493Z,15.10
2019-02-22T00:03:35.956Z,16.27
2019-02-22T00:06:04.464Z,14.20
2019-02-22T00:08:32.852Z,22.50
2019-02-22T00:11:01.240Z,14.17
2019-02-22T00:13:29.681Z,17.13
2019-02-22T00:15:58.072Z,15.80
2019-02-22T00:18:26.460Z,22.03
2019-02-22T00:20:55.214Z,19.80
2019-02-22T00:23:23.610Z,16.43
2019-02-22T00:25:52.015Z,14.97
2019-02-22T00:28:20.526Z,15.80
2019-02-22T00:30:48.916Z,15.10
2019-02-22T00:33:17.380Z,14.47
2019-02-22T00:35:45.860Z,17.70
2019-02-22T00:38:14.205Z,15.53
2019-02-22T00:40:42.606Z,15.53
2019-02-22T00:43:11.429Z,14.40
2019-02-22T00:45:39.824Z,17.03
2019-02-22T00:48:08.216Z,18.67
2019-02-22T00:50:36.727Z,16.70
2019-02-22T00:53:05.124Z,21.07
2019-02-22T00:55:33.519Z,15.83
2019-02-22T00:58:02.019Z,15.53
2019-02-22T01:00:30.414Z,16.27
2019-02-22T01:02:58.834Z,16.30
2019-02-22T01:05:27.334Z,17.33
2019-02-22T01:07:55.758Z,12.37
2019-02-22T01:10:31.148Z,15.20
2019-02-22T01:12:54.442Z,17.67
2019-02-22T01:15:22.857Z,16.40
2019-02-22T01:17:51.254Z,20.43
2019-02-22T01:20:19.714Z,21.80
2019-02-22T01:22:48.172Z,15.87
2019-02-22T01:25:16.564Z,18.47
2019-02-22T01:27:45.148Z,21.83
2019-02-22T01:30:13.711Z,16.80
2019-02-22T01:32:42.142Z,17.37
2019-02-22T01:35:10.778Z,20.27
2019-02-22T01:37:39.186Z,19.77
2019-02-22T01:40:09.839Z,19.80
2019-02-22T01:42:38.244Z,19.27
2019-02-22T01:45:07.497Z,17.80
2019-02-22T01:47:35.888Z,19.80
2019-02-22T01:50:05.783Z,20.30
2019-02-22T01:52:34.174Z,23.63
2019-02-22T01:55:02.570Z,25.77
2019-02-22T01:57:31.081Z,21.90
2019-02-22T01:59:59.476Z,23.67
2019-02-22T02:02:27.895Z,24.47
2019-02-22T02:04:56.384Z,24.40
2019-02-22T02:07:24.856Z,25.60
2019-02-22T02:09:53.312Z,26.07
2019-02-22T02:12:21.846Z,30.17
2019-02-22T02:14:50.254Z,30.33
2019-02-22T02:17:18.721Z,28.30
2019-02-22T02:19:47.290Z,30.10
2019-02-22T02:22:15.692Z,28.33
2019-02-22T02:24:44.120Z,32.10
2019-02-22T02:27:12.536Z,29.13
2019-02-22T02:29:40.932Z,31.53
2019-02-22T02:32:09.331Z,29.50
2019-02-22T02:34:37.842Z,33.57
2019-02-22T02:37:06.392Z,30.57
2019-02-22T02:39:34.858Z,27.67
2019-02-22T02:42:03.292Z,27.87
2019-02-22T02:44:31.753Z,29.93
2019-02-22T02:47:00.159Z,28.63
2019-02-22T02:49:28.606Z,31.83
2019-02-22T02:51:57.003Z,29.87
2019-02-22T02:54:25.405Z,26.10
2019-02-22T02:56:53.835Z,37.90
2019-02-22T02:59:22.308Z,29.83
2019-02-22T03:01:50.705Z,29.33
2019-02-22T03:04:19.300Z,31.53
2019-02-22T03:06:49.407Z,27.97
2019-02-22T03:09:17.802Z,28.73
2019-02-22T03:11:46.293Z,27.07
2019-02-22T03:14:17.091Z,34.67
2019-02-22T03:16:44.805Z,28.77
2019-02-22T03:19:13.330Z,31.00
2019-02-22T03:21:41.724Z,27.50
2019-02-22T03:24:10.141Z,31.13
2019-02-22T03:26:38.581Z,31.30
2019-02-22T03:29:06.975Z,26.87
2019-02-22T03:31:35.369Z,27.87
2019-02-22T03:34:03.953Z,27.97
2019-02-22T03:36:32.340Z,27.60
2019-02-22T03:39:00.752Z,28.10
2019-02-22T03:41:32.724Z,29.83
2019-02-22T03:43:59.323Z,27.80
2019-02-22T03:46:27.718Z,28.30
2019-02-22T03:48:56.303Z,28.13
2019-02-22T03:51:24.701Z,31.63
2019-02-22T03:53:53.588Z,24.37
2019-02-22T03:56:22.329Z,27.50
2019-02-22T03:58:50.810Z,26.37
2019-02-22T04:01:19.211Z,28.87
2019-02-22T04:03:47.715Z,32.43
2019-02-22T04:06:16.111Z,28.13
2019-02-22T04:08:44.512Z,29.90
2019-02-22T04:11:12.936Z,24.40
2019-02-22T04:13:41.401Z,29.57
2019-02-22T04:16:09.801Z,35.77
2019-02-22T04:18:38.317Z,24.17
2019-02-22T04:21:06.707Z,23.27
2019-02-22T04:23:35.106Z,29.00
2019-02-22T04:26:03.543Z,25.13
2019-02-22T04:28:31.937Z,29.00
2019-02-22T04:31:00.339Z,27.97
2019-02-22T04:33:28.871Z,23.77
2019-02-22T04:35:57.344Z,23.03
2019-02-22T04:38:25.751Z,24.57
2019-02-22T04:40:54.269Z,25.77
2019-02-22T04:43:22.670Z,21.30
2019-02-22T04:45:51.069Z,25.13
2019-02-22T04:48:19.980Z,24.27
2019-02-22T04:50:48.424Z,22.57
2019-02-22T04:53:16.824Z,22.97
2019-02-22T04:55:45.564Z,24.53
2019-02-22T04:58:13.967Z,26.47
2019-02-22T05:00:42.366Z,27.50
2019-02-22T05:03:10.865Z,24.67
2019-02-22T05:05:39.301Z,27.13
2019-02-22T05:08:07.705Z,24.57
2019-02-22T05:10:36.176Z,24.67
2019-02-22T05:13:04.570Z,26.80
2019-02-22T05:15:32.965Z,25.40
2019-02-22T05:18:01.420Z,23.67
2019-02-22T05:20:29.815Z,27.60
2019-02-22T05:23:03.916Z,25.63
2019-02-22T05:25:28.457Z,22.20
2019-02-22T05:27:56.854Z,24.20
2019-02-22T05:30:25.251Z,22.20
2019-02-22T05:32:53.778Z,26.20
2019-02-22T05:35:22.178Z,20.87
2019-02-22T05:37:50.577Z,25.73
2019-02-22T05:40:19.104Z,26.53
2019-02-22T05:42:47.501Z,23.83
2019-02-22T05:45:15.904Z,22.07
2019-02-22T05:47:44.405Z,24.43
2019-02-22T05:50:12.811Z,25.57
2019-02-22T05:52:41.261Z,24.27
2019-02-22T05:55:09.664Z,26.13
2019-02-22T05:57:38.058Z,27.33
2019-02-22T06:00:08.167Z,29.83
2019-02-22T06:02:36.620Z,29.07
2019-02-22T06:05:06.368Z,27.27
2019-02-22T06:07:34.759Z,28.37
2019-02-22T06:10:03.195Z,34.87
2019-02-22T06:12:34.474Z,25.63
2019-02-22T06:15:01.721Z,28.60
2019-02-22T06:17:30.239Z,26.00
2019-02-22T06:19:58.642Z,28.43
2019-02-22T06:22:29.870Z,29.80
2019-02-22T06:24:57.222Z,24.47
2019-02-22T06:27:25.623Z,25.50
2019-02-22T06:29:54.017Z,27.30
2019-02-22T06:32:22.443Z,30.10
2019-02-22T06:34:50.841Z,26.70
2019-02-22T06:37:19.246Z,25.77
2019-02-22T06:39:48.143Z,28.93
2019-02-22T06:42:16.501Z,27.53
2019-02-22T06:44:44.923Z,23.83
2019-02-22T06:47:13.445Z,30.33
2019-02-22T06:49:44.358Z,30.83
2019-02-22T06:52:11.984Z,29.13
2019-02-22T06:54:40.741Z,27.50
2019-02-22T06:57:09.139Z,27.77
2019-02-22T06:59:37.553Z,25.73
2019-02-22T07:02:06.575Z,25.73
2019-02-22T07:04:34.988Z,28.10
2019-02-22T07:07:03.384Z,27.73
2019-02-22T07:09:31.899Z,27.03
2019-02-22T07:12:18.219Z,27.13
2019-02-22T07:14:47.050Z,32.73
2019-02-22T07:17:15.431Z,27.33
2019-02-22T07:19:43.818Z,29.83
2019-02-22T07:22:12.249Z,26.50
2019-02-22T07:24:40.647Z,27.30
2019-02-22T07:27:09.062Z,23.20
2019-02-22T07:29:37.812Z,25.10
2019-02-22T07:32:06.547Z,24.30
2019-02-22T07:34:34.996Z,29.33
2019-02-22T07:37:03.432Z,25.00
2019-02-22T07:39:31.836Z,29.87
2019-02-22T07:42:00.274Z,27.07
2019-02-22T07:44:28.708Z,28.10
2019-02-22T07:46:57.134Z,29.13
2019-02-22T07:49:26.873Z,27.47
2019-02-22T07:51:55.453Z,24.83
2019-02-22T07:54:23.852Z,23.63
2019-02-22T07:56:52.247Z,22.30
2019-02-22T07:59:21.000Z,25.40
2019-02-22T08:01:49.396Z,22.60
2019-02-22T08:04:17.820Z,20.30
2019-02-22T08:06:46.285Z,25.27
2019-02-22T08:09:14.690Z,19.30
2019-02-22T08:11:43.086Z,21.53
2019-02-22T08:14:11.548Z,22.23
2019-02-22T08:16:39.948Z,23.43
2019-02-22T08:19:11.082Z,21.10
2019-02-22T08:21:38.495Z,23.13
2019-02-22T08:24:06.898Z,20.90
2019-02-22T08:26:35.304Z,24.53
2019-02-22T08:29:03.744Z,21.67
2019-02-22T08:31:32.136Z,21.33
2019-02-22T08:34:00.542Z,18.30
2019-02-22T08:36:29.008Z,18.53
2019-02-22T08:38:57.412Z,21.60
2019-02-22T08:41:25.808Z,19.60
2019-02-22T08:43:54.368Z,20.43
2019-02-22T08:46:22.795Z,22.07
2019-02-22T08:48:51.196Z,26.00
2019-02-22T08:51:19.755Z,22.60
2019-02-22T08:53:48.156Z,17.50
2019-02-22T08:56:16.564Z,19.50
2019-02-22T08:58:45.026Z,20.73
2019-02-22T09:01:14.948Z,17.50
2019-02-22T09:03:50.243Z,25.70
2019-02-22T09:06:13.593Z,18.80
2019-02-22T09:08:42.025Z,17.00
2019-02-22T09:11:13.401Z,16.53
2019-02-22T09:13:43.783Z,16.97
2019-02-22T09:16:12.342Z,14.60
2019-02-22T09:18:40.800Z,15.40
2019-02-22T09:21:09.311Z,15.77
2019-02-22T09:23:37.713Z,17.63
2019-02-22T09:26:06.120Z,15.57
2019-02-22T09:28:34.682Z,17.20
2019-02-22T09:31:03.092Z,15.63
2019-02-22T09:33:31.482Z,14.70
2019-02-22T09:35:59.906Z,13.07
2019-02-22T09:38:28.308Z,15.33
2019-02-22T09:40:56.712Z,12.47
2019-02-22T09:43:25.239Z,12.53
2019-02-22T09:45:53.640Z,13.33
2019-02-22T09:48:22.059Z,12.83
2019-02-22T09:50:50.537Z,11.63
2019-02-22T09:53:20.476Z,11.70
2019-02-22T09:55:48.877Z,12.53
2019-02-22T09:58:17.312Z,11.23
2019-02-22T10:00:45.700Z,9.93
2019-02-22T10:03:14.091Z,9.30
2019-02-22T10:05:42.531Z,9.43
2019-02-22T10:08:10.919Z,9.23
2019-02-22T10:10:39.315Z,10.33
2019-02-22T10:13:08.069Z,11.70
2019-02-22T10:15:36.464Z,9.50
2019-02-22T10:18:04.962Z,11.27
2019-02-22T10:20:33.376Z,9.70
2019-02-22T10:23:01.782Z,10.50
2019-02-22T10:25:30.183Z,10.07
2019-02-22T10:27:58.603Z,9.90
2019-02-22T10:30:27.004Z,12.60
2019-02-22T10:32:55.402Z,15.40
2019-02-22T10:35:23.904Z,14.20
2019-02-22T10:37:52.303Z,10.93
2019-02-22T10:40:20.705Z,9.70
2019-02-22T10:42:49.162Z,10.67
2019-02-22T10:45:17.556Z,12.40
2019-02-22T10:47:45.960Z,11.27
2019-02-22T10:50:14.393Z,11.80
2019-02-22T10:52:42.791Z,10.60
2019-02-22T10:55:12.732Z,9.97
2019-02-22T10:57:41.354Z,10.83
2019-02-22T11:00:14.349Z,11.57
2019-02-22T11:02:42.772Z,12.60
2019-02-22T11:05:11.341Z,14.87
2019-02-22T11:07:39.737Z,10.93
2019-02-22T11:10:10.586Z,16.40
2019-02-22T11:12:39.350Z,11.07
2019-02-22T11:15:10.493Z,10.50
2019-02-22T11:17:38.950Z,12.77
2019-02-22T11:20:09.784Z,15.73
2019-02-22T11:22:38.183Z,13.90
2019-02-22T11:25:09.966Z,15.47
2019-02-22T11:27:38.719Z,14.63
2019-02-22T11:30:10.368Z,16.77
2019-02-22T11:32:38.770Z,17.90
2019-02-22T11:35:08.839Z,24.83
2019-02-22T11:37:37.312Z,28.97
2019-02-22T11:40:08.489Z,29.53
2019-02-22T11:42:36.967Z,26.00
2019-02-22T11:45:06.798Z,29.57
2019-02-22T11:47:35.702Z,32.30
2019-02-22T11:50:06.114Z,30.70
2019-02-22T11:52:34.518Z,28.97
2019-02-22T11:55:03.661Z,29.80
2019-02-22T11:57:32.188Z,28.53
2019-02-22T12:00:00.754Z,27.93
2019-02-22T12:02:29.157Z,30.00
2019-02-22T12:04:57.776Z,29.17
2019-02-22T12:07:26.246Z,26.90
2019-02-22T12:09:54.677Z,31.33
2019-02-22T12:12:23.182Z,30.27
2019-02-22T12:14:52.402Z,30.17
2019-02-22T12:17:20.804Z,30.67
2019-02-22T12:19:49.243Z,28.83
2019-02-22T12:22:17.652Z,29.43
2019-02-22T12:24:46.066Z,35.00
2019-02-22T12:27:14.593Z,31.40
2019-02-22T12:29:43.020Z,35.53
2019-02-22T12:32:11.422Z,31.77
2019-02-22T12:34:39.849Z,28.27
2019-02-22T12:37:08.335Z,30.83
2019-02-22T12:39:36.745Z,32.70
2019-02-22T12:42:05.407Z,30.37
2019-02-22T12:44:33.815Z,35.00
2019-02-22T12:47:02.225Z,32.83
2019-02-22T12:49:30.665Z,35.83
2019-02-22T12:51:59.080Z,34.43
2019-02-22T12:54:27.480Z,30.47
2019-02-22T12:56:58.623Z,35.03
2019-02-22T12:59:27.005Z,33.23
2019-02-22T13:01:56.271Z,32.03
2019-02-22T13:04:24.704Z,30.17
2019-02-22T13:06:53.116Z,28.83
2019-02-22T13:09:21.519Z,29.90
2019-02-22T13:11:50.050Z,27.33
2019-02-22T13:14:18.454Z,29.03
2019-02-22T13:16:46.860Z,45.23
2019-02-22T13:19:15.621Z,32.20
2019-02-22T13:21:44.032Z,28.37
2019-02-22T13:24:12.439Z,29.80
2019-02-22T13:26:40.894Z,29.27
2019-02-22T13:29:09.316Z,27.30
2019-02-22T13:31:37.688Z,29.27
2019-02-22T13:34:06.168Z,29.73
2019-02-22T13:36:34.569Z,30.07
2019-02-22T13:39:03.841Z,26.73
2019-02-22T13:41:32.351Z,29.10
2019-02-22T13:44:00.844Z,26.67
2019-02-22T13:46:29.326Z,28.67
2019-02-22T13:48:57.788Z,30.50
2019-02-22T13:51:26.195Z,29.60
2019-02-22T13:53:54.606Z,27.67
2019-02-22T13:56:29.704Z,28.87
2019-02-22T13:58:53.217Z,29.90
2019-02-22T14:04:02.361Z,25.20
2019-02-22T14:09:44.504Z,26.27
2019-02-22T14:14:47.264Z,29.07
2019-02-22T14:19:49.628Z,27.43
2019-02-22T14:24:51.650Z,25.10
2019-02-22T14:27:20.053Z,25.63
2019-02-22T14:29:48.480Z,22.10
2019-02-22T14:32:36.554Z,22.60
2019-02-22T14:35:44.940Z,22.97
2019-02-22T14:38:13.390Z,23.47
2019-02-22T14:40:41.760Z,23.20
2019-02-22T14:46:04.110Z,24.07
2019-02-22T14:48:32.558Z,24.17
2019-02-22T14:51:00.950Z,24.07
2019-02-22T14:53:29.358Z,25.30
2019-02-22T14:55:59.800Z,24.47
2019-02-22T14:58:27.980Z,25.80
2019-02-22T15:00:56.490Z,23.90
2019-02-22T15:03:24.954Z,21.83
2019-02-22T15:06:12.680Z,23.57
2019-02-22T15:08:41.111Z,26.37
2019-02-22T15:14:18.192Z,23.77
2019-02-22T15:17:06.995Z,26.90
2019-02-22T15:19:35.427Z,26.37
2019-02-22T15:25:51.833Z,24.70
2019-02-22T15:28:20.236Z,31.23
2019-02-22T15:30:48.637Z,25.90
2019-02-22T15:35:50.955Z,28.83
2019-02-22T15:38:19.358Z,27.00
2019-02-22T15:43:21.461Z,27.77
2019-02-22T15:46:29.786Z,29.93
2019-02-22T15:48:58.263Z,24.83
2019-02-22T15:51:26.638Z,26.63
2019-02-22T15:56:29.629Z,25.27
2019-02-22T15:58:58.071Z,24.53
2019-02-22T16:01:26.482Z,21.70
2019-02-22T16:04:14.047Z,26.40
2019-02-22T16:06:42.451Z,24.20
2019-02-22T16:09:50.981Z,26.33
2019-02-22T16:12:19.383Z,25.93
2019-02-22T16:14:47.814Z,27.40
2019-02-22T16:17:16.250Z,25.30
2019-02-22T16:19:44.655Z,25.43
2019-02-22T16:22:13.070Z,26.67
2019-02-22T16:25:00.703Z,29.87
2019-02-22T16:27:29.102Z,25.87
2019-02-22T16:32:52.695Z,23.10
2019-02-22T16:35:21.099Z,24.13
2019-02-22T16:37:49.519Z,24.13
2019-02-22T16:40:17.939Z,24.10
2019-02-22T16:42:46.339Z,26.20
2019-02-22T16:45:14.820Z,27.47
2019-02-22T16:50:17.582Z,23.17
2019-02-22T16:53:05.317Z,24.53
2019-02-22T16:55:33.727Z,23.53
2019-02-22T16:58:02.130Z,24.07
2019-02-22T17:03:44.467Z,23.40
2019-02-22T17:06:12.933Z,23.33
2019-02-22T17:08:41.352Z,25.10
2019-02-22T17:11:09.756Z,24.70
2019-02-22T17:16:12.505Z,22.37
2019-02-22T17:18:40.933Z,28.90
2019-02-22T17:21:09.331Z,23.80
2019-02-22T17:23:37.729Z,25.97
2019-02-22T17:26:46.174Z,23.50
2019-02-22T17:29:14.587Z,23.93
2019-02-22T17:31:42.989Z,24.93
2019-02-22T17:34:11.415Z,20.40
2019-02-22T17:36:39.823Z,20.27
2019-02-22T17:39:08.289Z,21.43
2019-02-22T17:44:10.505Z,23.80
2019-02-22T17:49:12.825Z,22.20
2019-02-22T17:51:41.229Z,21.67
2019-02-22T17:54:09.679Z,24.07
2019-02-22T17:56:38.077Z,26.40
2019-02-22T17:59:06.489Z,41.40
2019-02-22T18:01:35.010Z,52.37
2019-02-22T18:04:03.416Z,26.13
2019-02-22T18:06:45.204Z,24.97
2019-02-22T18:09:33.004Z,24.87
2019-02-22T18:14:35.372Z,24.00
2019-02-22T18:17:08.465Z,25.80
2019-02-22T18:19:33.977Z,25.07
2019-02-22T18:22:02.461Z,25.77
2019-02-22T18:27:24.227Z,27.40
2019-02-22T18:29:52.697Z,23.63
2019-02-22T18:32:21.110Z,24.67
2019-02-22T18:34:49.515Z,21.23
2019-02-22T18:39:51.721Z,22.17
2019-02-22T18:45:53.528Z,22.53
2019-02-22T18:50:56.404Z,22.73
2019-02-22T18:53:24.842Z,20.87
2019-02-22T18:55:53.247Z,23.03
2019-02-22T18:58:21.648Z,22.97
2019-02-22T19:00:50.076Z,27.27
2019-02-22T19:03:18.476Z,25.33
2019-02-22T19:05:46.893Z,25.00
2019-02-22T19:08:15.342Z,21.87
2019-02-22T19:10:43.750Z,25.23
2019-02-22T19:13:12.160Z,28.03
2019-02-22T19:21:48.758Z,20.73
2019-02-22T19:24:17.166Z,41.60
2019-02-22T19:26:45.581Z,34.63
2019-02-22T19:29:14.008Z,23.97
2019-02-22T19:31:42.430Z,21.80
2019-02-22T19:34:10.812Z,20.80
2019-02-22T19:36:39.246Z,18.43
2019-02-22T19:39:07.742Z,21.57
2019-02-22T19:41:55.491Z,17.20
2019-02-22T19:44:43.341Z,15.50
2019-02-22T19:47:11.793Z,12.77
2019-02-22T19:49:40.183Z,9.27
2019-02-22T19:52:08.580Z,10.20
2019-02-22T19:57:11.339Z,9.27
2019-02-22T19:59:59.010Z,8.13
2019-02-22T20:02:27.411Z,6.47
2019-02-22T20:04:55.808Z,6.50
2019-02-22T20:07:43.966Z,6.60
2019-02-22T20:10:52.330Z,6.73
2019-02-22T20:16:15.140Z,6.37
2019-02-22T20:19:02.821Z,6.00
2019-02-22T20:21:31.230Z,7.17
2019-02-22T20:23:59.632Z,6.30
2019-02-22T20:29:01.807Z,6.50
2019-02-22T20:31:30.201Z,6.50
2019-02-22T20:33:58.635Z,7.27
2019-02-22T20:36:46.491Z,7.50
2019-02-22T20:44:28.235Z,6.20
2019-02-22T20:46:56.629Z,6.73
2019-02-22T20:49:25.023Z,6.73
2019-02-22T20:54:28.099Z,7.97
2019-02-22T20:56:56.528Z,7.30
2019-02-22T20:59:24.935Z,7.40
2019-02-22T21:01:53.334Z,6.97
2019-02-22T21:06:55.530Z,8.03
2019-02-22T21:11:57.563Z,8.50
2019-02-22T21:14:25.957Z,8.00
2019-02-22T21:17:13.590Z,7.57
2019-02-22T21:19:41.995Z,7.87
2019-02-22T21:22:10.391Z,8.00
2019-02-22T21:24:38.807Z,7.97
2019-02-22T21:27:07.204Z,8.27
2019-02-22T21:29:35.595Z,8.03
2019-02-22T21:34:37.953Z,7.90
2019-02-22T21:37:06.419Z,8.03
2019-02-22T21:42:19.659Z,7.73
2019-02-22T21:47:13.094Z,7.50
2019-02-22T21:49:41.480Z,7.07
2019-02-22T21:54:43.382Z,7.97
2019-02-22T21:57:11.792Z,8.30
2019-02-22T21:59:40.277Z,6.70
2019-02-22T22:02:08.745Z,5.60
2019-02-22T22:04:37.147Z,5.40
2019-02-22T22:07:05.567Z,7.13
2019-02-22T22:09:33.964Z,5.80
2019-02-22T22:12:15.121Z,5.50
2019-02-22T22:14:43.514Z,5.90
2019-02-22T22:17:11.910Z,6.77
2019-02-22T22:22:14.703Z,6.10
2019-02-22T22:27:17.579Z,5.87
2019-02-22T22:32:20.417Z,5.67
2019-02-22T22:34:48.860Z,5.60
2019-02-22T22:42:59.843Z,6.90
2019-02-22T22:48:02.219Z,6.67
2019-02-22T22:50:30.627Z,6.97
2019-02-22T22:52:59.082Z,5.43
2019-02-22T22:55:46.900Z,6.10
2019-02-22T22:58:15.291Z,6.10
2019-02-22T23:08:50.641Z,5.53
2019-02-22T23:11:58.964Z,5.60
2019-02-22T23:17:01.844Z,5.50
2019-02-22T23:22:05.758Z,5.37
2019-02-22T23:24:34.151Z,6.30
2019-02-22T23:27:02.551Z,6.40
2019-02-22T23:32:04.873Z,5.90
2019-02-22T23:34:33.269Z,5.70
2019-02-22T23:39:35.778Z,6.93
2019-02-22T23:42:04.169Z,6.20
2019-02-22T23:47:26.268Z,7.33
2019-02-22T23:49:54.685Z,9.27
2019-02-22T23:52:23.078Z,7.33
2019-02-22T23:54:51.472Z,7.17
2019-02-22T23:57:19.946Z,6.20
2019-02-22T23:59:48.340Z,7.30
